Terminal Aerodrome Forecast
Issued by NWS

Current Version | Previous Version | Text Only | Print | Product List | Glossary Off
Versions: 1 2 3 4 5 6 7 8 9 10 11 12 13 14 15 16 17 18 19 20 21

000
FTUS41 KPBZ 250500
TAFMGW
TAF
KMGW 250531Z 2506/2606 VRB03KT P6SM SCT120 BKN250
     FM250900 13008KT P6SM -SHRA OVC040 WS020/19035KT
     FM251500 18012KT P6SM BKN035=

USA.gov is the U.S. government's official web portal to all federal, state and local government web resources and services.